sensor_id;sensor_type;location;lat;lon;timestamp;P1;durP1;ratioP1;P2;durP2;ratioP2
26540;SDS011;14206;50.202;10.948;2023-10-09T00:02:13;2.15;;;1.30;;
26540;SDS011;14206;50.202;10.948;2023-10-09T00:04:41;1.30;;;1.20;;
26540;SDS011;14206;50.202;10.948;2023-10-09T00:07:09;0.90;;;0.90;;
26540;SDS011;14206;50.202;10.948;2023-10-09T00:09:38;1.10;;;0.85;;
26540;SDS011;14206;50.202;10.948;2023-10-09T00:12:15;1.38;;;1.20;;
26540;SDS011;14206;50.202;10.948;2023-10-09T00:14:50;1.40;;;1.30;;
26540;SDS011;14206;50.202;10.948;2023-10-09T00:18:14;1.70;;;1.30;;
26540;SDS011;14206;50.202;10.948;2023-10-09T00:20:41;1.40;;;1.20;;
26540;SDS011;14206;50.202;10.948;2023-10-09T00:23:15;1.30;;;1.20;;
26540;SDS011;14206;50.202;10.948;2023-10-09T00:25:49;1.27;;;1.05;;
26540;SDS011;14206;50.202;10.948;2023-10-09T00:28:37;1.25;;;1.10;;
26540;SDS011;14206;50.202;10.948;2023-10-09T00:31:09;1.30;;;1.20;;
26540;SDS011;14206;50.202;10.948;2023-10-09T00:33:42;1.27;;;1.00;;
26540;SDS011;14206;50.202;10.948;2023-10-09T00:36:10;1.20;;;1.10;;
26540;SDS011;14206;50.202;10.948;2023-10-09T00:38:38;1.15;;;1.00;;
26540;SDS011;14206;50.202;10.948;2023-10-09T00:41:17;1.20;;;1.10;;
26540;SDS011;14206;50.202;10.948;2023-10-09T00:43:48;1.58;;;1.15;;
26540;SDS011;14206;50.202;10.948;2023-10-09T00:46:20;1.10;;;1.00;;
26540;SDS011;14206;50.202;10.948;2023-10-09T00:48:48;1.10;;;1.00;;
26540;SDS011;14206;50.202;10.948;2023-10-09T00:51:16;1.00;;;0.85;;
26540;SDS011;14206;50.202;10.948;2023-10-09T00:53:46;1.15;;;1.00;;
26540;SDS011;14206;50.202;10.948;2023-10-09T00:56:18;1.38;;;1.10;;
26540;SDS011;14206;50.202;10.948;2023-10-09T00:59:04;0.80;;;0.80;;
26540;SDS011;14206;50.202;10.948;2023-10-09T01:01:42;1.00;;;0.90;;
26540;SDS011;14206;50.202;10.948;2023-10-09T01:04:44;0.80;;;0.80;;
26540;SDS011;14206;50.202;10.948;2023-10-09T01:07:12;0.95;;;0.88;;
26540;SDS011;14206;50.202;10.948;2023-10-09T01:09:42;1.00;;;0.90;;
26540;SDS011;14206;50.202;10.948;2023-10-09T01:12:11;0.90;;;0.90;;
26540;SDS011;14206;50.202;10.948;2023-10-09T01:14:45;1.92;;;1.17;;
26540;SDS011;14206;50.202;10.948;2023-10-09T01:17:19;1.55;;;1.05;;
26540;SDS011;14206;50.202;10.948;2023-10-09T01:20:03;0.90;;;0.90;;
26540;SDS011;14206;50.202;10.948;2023-10-09T01:22:31;0.98;;;0.90;;
26540;SDS011;14206;50.202;10.948;2023-10-09T01:25:01;0.90;;;0.90;;
26540;SDS011;14206;50.202;10.948;2023-10-09T01:27:47;1.30;;;0.98;;
26540;SDS011;14206;50.202;10.948;2023-10-09T01:30:14;0.90;;;0.90;;
26540;SDS011;14206;50.202;10.948;2023-10-09T01:32:41;1.00;;;1.00;;
26540;SDS011;14206;50.202;10.948;2023-10-09T01:35:11;1.40;;;0.90;;
26540;SDS011;14206;50.202;10.948;2023-10-09T01:37:48;0.90;;;0.90;;
26540;SDS011;14206;50.202;10.948;2023-10-09T01:40:18;1.10;;;1.00;;
26540;SDS011;14206;50.202;10.948;2023-10-09T01:43:03;1.52;;;0.95;;
26540;SDS011;14206;50.202;10.948;2023-10-09T01:45:30;1.10;;;1.00;;
26540;SDS011;14206;50.202;10.948;2023-10-09T01:48:09;1.23;;;1.10;;
26540;SDS011;14206;50.202;10.948;2023-10-09T01:50:38;0.90;;;0.90;;
26540;SDS011;14206;50.202;10.948;2023-10-09T01:53:08;1.30;;;1.20;;
26540;SDS011;14206;50.202;10.948;2023-10-09T01:55:36;1.40;;;1.00;;
26540;SDS011;14206;50.202;10.948;2023-10-09T01:58:11;0.93;;;0.90;;
26540;SDS011;14206;50.202;10.948;2023-10-09T02:00:45;1.10;;;1.02;;
26540;SDS011;14206;50.202;10.948;2023-10-09T02:03:16;1.20;;;1.10;;
26540;SDS011;14206;50.202;10.948;2023-10-09T02:05:44;1.15;;;0.90;;
26540;SDS011;14206;50.202;10.948;2023-10-09T02:08:11;1.13;;;1.02;;
26540;SDS011;14206;50.202;10.948;2023-10-09T02:10:39;1.00;;;0.95;;
26540;SDS011;14206;50.202;10.948;2023-10-09T02:13:07;1.17;;;1.08;;
26540;SDS011;14206;50.202;10.948;2023-10-09T02:15:37;1.52;;;0.90;;
26540;SDS011;14206;50.202;10.948;2023-10-09T02:18:15;1.10;;;1.00;;
26540;SDS011;14206;50.202;10.948;2023-10-09T02:20:47;1.20;;;1.10;;
26540;SDS011;14206;50.202;10.948;2023-10-09T02:26:08;1.00;;;0.90;;
26540;SDS011;14206;50.202;10.948;2023-10-09T02:28:55;1.10;;;1.00;;
26540;SDS011;14206;50.202;10.948;2023-10-09T02:31:27;0.90;;;0.90;;
26540;SDS011;14206;50.202;10.948;2023-10-09T02:34:03;1.00;;;0.90;;
26540;SDS011;14206;50.202;10.948;2023-10-09T02:36:31;1.17;;;1.08;;
26540;SDS011;14206;50.202;10.948;2023-10-09T02:39:11;1.38;;;1.20;;
26540;SDS011;14206;50.202;10.948;2023-10-09T02:41:54;1.42;;;1.23;;
26540;SDS011;14206;50.202;10.948;2023-10-09T02:44:28;1.50;;;1.38;;
26540;SDS011;14206;50.202;10.948;2023-10-09T02:46:58;1.45;;;1.30;;
26540;SDS011;14206;50.202;10.948;2023-10-09T02:49:26;1.00;;;0.90;;
26540;SDS011;14206;50.202;10.948;2023-10-09T02:51:53;1.10;;;1.00;;
26540;SDS011;14206;50.202;10.948;2023-10-09T02:54:20;0.93;;;0.93;;
26540;SDS011;14206;50.202;10.948;2023-10-09T02:56:51;1.10;;;1.00;;
26540;SDS011;14206;50.202;10.948;2023-10-09T02:59:44;1.33;;;1.23;;
26540;SDS011;14206;50.202;10.948;2023-10-09T03:02:11;1.67;;;1.17;;
26540;SDS011;14206;50.202;10.948;2023-10-09T03:04:38;1.17;;;1.08;;
26540;SDS011;14206;50.202;10.948;2023-10-09T03:07:07;1.10;;;1.00;;
26540;SDS011;14206;50.202;10.948;2023-10-09T03:09:36;1.60;;;1.20;;
26540;SDS011;14206;50.202;10.948;2023-10-09T03:12:04;1.42;;;1.33;;
26540;SDS011;14206;50.202;10.948;2023-10-09T03:14:37;1.30;;;1.20;;
26540;SDS011;14206;50.202;10.948;2023-10-09T03:17:05;1.65;;;1.20;;
26540;SDS011;14206;50.202;10.948;2023-10-09T03:19:37;1.30;;;1.20;;
26540;SDS011;14206;50.202;10.948;2023-10-09T03:22:05;1.10;;;1.00;;
26540;SDS011;14206;50.202;10.948;2023-10-09T03:24:40;1.30;;;1.20;;
26540;SDS011;14206;50.202;10.948;2023-10-09T03:27:18;1.23;;;1.13;;
26540;SDS011;14206;50.202;10.948;2023-10-09T03:29:45;1.35;;;1.20;;
26540;SDS011;14206;50.202;10.948;2023-10-09T03:32:35;1.30;;;1.20;;
26540;SDS011;14206;50.202;10.948;2023-10-09T03:35:02;1.92;;;1.33;;
26540;SDS011;14206;50.202;10.948;2023-10-09T03:37:33;1.48;;;1.20;;
26540;SDS011;14206;50.202;10.948;2023-10-09T03:40:01;1.30;;;1.20;;
26540;SDS011;14206;50.202;10.948;2023-10-09T03:42:29;1.25;;;1.15;;
26540;SDS011;14206;50.202;10.948;2023-10-09T03:44:57;1.38;;;1.27;;
26540;SDS011;14206;50.202;10.948;2023-10-09T03:47:27;1.52;;;1.40;;
26540;SDS011;14206;50.202;10.948;2023-10-09T03:49:54;1.40;;;1.30;;
26540;SDS011;14206;50.202;10.948;2023-10-09T03:52:28;1.20;;;1.10;;
26540;SDS011;14206;50.202;10.948;2023-10-09T03:54:57;1.25;;;1.15;;
26540;SDS011;14206;50.202;10.948;2023-10-09T03:57:24;1.40;;;1.30;;
26540;SDS011;14206;50.202;10.948;2023-10-09T03:59:51;4.50;;;2.65;;
26540;SDS011;14206;50.202;10.948;2023-10-09T04:02:18;3.08;;;2.60;;
26540;SDS011;14206;50.202;10.948;2023-10-09T04:04:48;4.10;;;3.10;;
26540;SDS011;14206;50.202;10.948;2023-10-09T04:07:21;2.75;;;2.38;;
26540;SDS011;14206;50.202;10.948;2023-10-09T04:09:48;2.88;;;2.10;;
26540;SDS011;14206;50.202;10.948;2023-10-09T04:12:20;2.03;;;1.77;;
26540;SDS011;14206;50.202;10.948;2023-10-09T04:14:52;2.28;;;2.00;;
26540;SDS011;14206;50.202;10.948;2023-10-09T04:17:24;3.05;;;2.70;;
26540;SDS011;14206;50.202;10.948;2023-10-09T04:20:03;6.50;;;4.80;;
26540;SDS011;14206;50.202;10.948;2023-10-09T04:22:43;7.57;;;4.95;;
26540;SDS011;14206;50.202;10.948;2023-10-09T04:25:32;5.88;;;3.50;;
26540;SDS011;14206;50.202;10.948;2023-10-09T04:28:09;4.28;;;3.47;;
26540;SDS011;14206;50.202;10.948;2023-10-09T04:30:45;3.88;;;2.92;;
26540;SDS011;14206;50.202;10.948;2023-10-09T04:33:14;5.97;;;4.60;;
26540;SDS011;14206;50.202;10.948;2023-10-09T04:36:05;7.43;;;4.32;;
26540;SDS011;14206;50.202;10.948;2023-10-09T04:38:49;9.45;;;5.03;;
26540;SDS011;14206;50.202;10.948;2023-10-09T04:41:41;4.30;;;3.80;;
26540;SDS011;14206;50.202;10.948;2023-10-09T04:44:09;5.55;;;3.42;;
26540;SDS011;14206;50.202;10.948;2023-10-09T04:46:46;4.80;;;3.63;;
26540;SDS011;14206;50.202;10.948;2023-10-09T04:49:34;4.30;;;3.75;;
26540;SDS011;14206;50.202;10.948;2023-10-09T04:52:15;4.68;;;3.65;;
26540;SDS011;14206;50.202;10.948;2023-10-09T04:54:58;5.18;;;4.43;;
26540;SDS011;14206;50.202;10.948;2023-10-09T04:57:36;7.10;;;6.15;;
26540;SDS011;14206;50.202;10.948;2023-10-09T05:03:01;6.50;;;5.18;;
26540;SDS011;14206;50.202;10.948;2023-10-09T05:05:39;5.25;;;4.50;;
26540;SDS011;14206;50.202;10.948;2023-10-09T05:08:11;5.50;;;3.58;;
26540;SDS011;14206;50.202;10.948;2023-10-09T05:10:49;4.40;;;3.55;;
26540;SDS011;14206;50.202;10.948;2023-10-09T05:13:34;6.38;;;3.72;;
26540;SDS011;14206;50.202;10.948;2023-10-09T05:18:49;4.70;;;3.25;;
26540;SDS011;14206;50.202;10.948;2023-10-09T05:23:59;5.75;;;3.78;;
26540;SDS011;14206;50.202;10.948;2023-10-09T05:26:41;5.60;;;3.90;;
26540;SDS011;14206;50.202;10.948;2023-10-09T05:29:21;6.40;;;4.10;;
26540;SDS011;14206;50.202;10.948;2023-10-09T05:31:55;6.05;;;3.80;;
26540;SDS011;14206;50.202;10.948;2023-10-09T05:34:25;6.20;;;3.80;;
26540;SDS011;14206;50.202;10.948;2023-10-09T05:37:03;6.72;;;4.63;;
26540;SDS011;14206;50.202;10.948;2023-10-09T05:39:52;8.95;;;4.93;;
26540;SDS011;14206;50.202;10.948;2023-10-09T05:42:30;9.52;;;6.10;;
26540;SDS011;14206;50.202;10.948;2023-10-09T05:45:04;7.88;;;5.65;;
26540;SDS011;14206;50.202;10.948;2023-10-09T05:47:46;9.02;;;5.65;;
26540;SDS011;14206;50.202;10.948;2023-10-09T05:53:39;7.38;;;4.85;;
26540;SDS011;14206;50.202;10.948;2023-10-09T05:56:12;6.28;;;4.82;;
26540;SDS011;14206;50.202;10.948;2023-10-09T05:58:57;8.15;;;5.90;;
26540;SDS011;14206;50.202;10.948;2023-10-09T06:01:43;9.23;;;5.63;;
26540;SDS011;14206;50.202;10.948;2023-10-09T06:04:25;6.68;;;4.32;;
26540;SDS011;14206;50.202;10.948;2023-10-09T06:07:21;7.95;;;5.25;;
26540;SDS011;14206;50.202;10.948;2023-10-09T06:09:50;8.85;;;6.60;;
26540;SDS011;14206;50.202;10.948;2023-10-09T06:12:22;8.60;;;6.25;;
26540;SDS011;14206;50.202;10.948;2023-10-09T06:14:58;8.57;;;6.50;;
26540;SDS011;14206;50.202;10.948;2023-10-09T06:17:46;9.45;;;7.20;;
26540;SDS011;14206;50.202;10.948;2023-10-09T06:20:26;9.90;;;8.15;;
26540;SDS011;14206;50.202;10.948;2023-10-09T06:23:12;12.63;;;8.90;;
26540;SDS011;14206;50.202;10.948;2023-10-09T06:25:43;14.27;;;10.05;;
26540;SDS011;14206;50.202;10.948;2023-10-09T06:28:18;12.05;;;9.57;;
26540;SDS011;14206;50.202;10.948;2023-10-09T06:30:59;12.48;;;10.25;;
26540;SDS011;14206;50.202;10.948;2023-10-09T06:33:46;12.25;;;10.43;;
26540;SDS011;14206;50.202;10.948;2023-10-09T06:36:42;10.77;;;8.85;;
26540;SDS011;14206;50.202;10.948;2023-10-09T06:39:40;13.32;;;9.70;;
26540;SDS011;14206;50.202;10.948;2023-10-09T06:42:25;13.32;;;10.52;;
26540;SDS011;14206;50.202;10.948;2023-10-09T06:45:08;11.00;;;9.07;;
26540;SDS011;14206;50.202;10.948;2023-10-09T06:47:48;12.75;;;9.50;;
26540;SDS011;14206;50.202;10.948;2023-10-09T06:50:23;12.35;;;8.63;;
26540;SDS011;14206;50.202;10.948;2023-10-09T06:52:51;11.60;;;9.63;;
26540;SDS011;14206;50.202;10.948;2023-10-09T06:55:40;9.18;;;7.70;;
26540;SDS011;14206;50.202;10.948;2023-10-09T06:58:21;11.43;;;8.43;;
26540;SDS011;14206;50.202;10.948;2023-10-09T07:00:54;9.85;;;7.82;;
26540;SDS011;14206;50.202;10.948;2023-10-09T07:03:25;8.82;;;6.97;;
26540;SDS011;14206;50.202;10.948;2023-10-09T07:06:06;7.93;;;6.43;;
26540;SDS011;14206;50.202;10.948;2023-10-09T07:08:46;10.00;;;7.97;;
26540;SDS011;14206;50.202;10.948;2023-10-09T07:11:26;9.18;;;7.10;;
26540;SDS011;14206;50.202;10.948;2023-10-09T07:14:17;7.97;;;6.47;;
26540;SDS011;14206;50.202;10.948;2023-10-09T07:16:57;7.75;;;6.03;;
26540;SDS011;14206;50.202;10.948;2023-10-09T07:19:44;6.90;;;5.60;;
26540;SDS011;14206;50.202;10.948;2023-10-09T07:22:11;6.03;;;5.20;;
26540;SDS011;14206;50.202;10.948;2023-10-09T07:24:56;6.07;;;4.93;;
26540;SDS011;14206;50.202;10.948;2023-10-09T07:27:25;6.13;;;4.93;;
26540;SDS011;14206;50.202;10.948;2023-10-09T07:30:15;5.50;;;4.88;;
26540;SDS011;14206;50.202;10.948;2023-10-09T07:32:56;4.82;;;4.03;;
26540;SDS011;14206;50.202;10.948;2023-10-09T07:35:32;5.95;;;4.65;;
26540;SDS011;14206;50.202;10.948;2023-10-09T07:38:26;4.95;;;4.38;;
26540;SDS011;14206;50.202;10.948;2023-10-09T07:41:01;5.72;;;4.47;;
26540;SDS011;14206;50.202;10.948;2023-10-09T07:43:33;5.03;;;4.50;;
26540;SDS011;14206;50.202;10.948;2023-10-09T07:46:15;5.05;;;3.90;;
26540;SDS011;14206;50.202;10.948;2023-10-09T07:49:18;4.55;;;3.75;;
26540;SDS011;14206;50.202;10.948;2023-10-09T07:51:52;4.60;;;3.90;;
26540;SDS011;14206;50.202;10.948;2023-10-09T07:54:19;5.70;;;4.85;;
26540;SDS011;14206;50.202;10.948;2023-10-09T07:56:58;6.30;;;5.00;;
26540;SDS011;14206;50.202;10.948;2023-10-09T07:59:35;6.63;;;5.60;;
26540;SDS011;14206;50.202;10.948;2023-10-09T08:02:07;7.68;;;5.88;;
26540;SDS011;14206;50.202;10.948;2023-10-09T08:04:40;6.15;;;4.57;;
26540;SDS011;14206;50.202;10.948;2023-10-09T08:07:16;4.75;;;4.10;;
26540;SDS011;14206;50.202;10.948;2023-10-09T08:10:06;5.75;;;4.15;;
26540;SDS011;14206;50.202;10.948;2023-10-09T08:12:40;4.70;;;3.70;;
26540;SDS011;14206;50.202;10.948;2023-10-09T08:15:24;4.68;;;3.83;;
26540;SDS011;14206;50.202;10.948;2023-10-09T08:18:17;5.38;;;4.03;;
26540;SDS011;14206;50.202;10.948;2023-10-09T08:20:54;5.50;;;4.38;;
26540;SDS011;14206;50.202;10.948;2023-10-09T08:23:44;5.00;;;4.50;;
26540;SDS011;14206;50.202;10.948;2023-10-09T08:26:18;4.73;;;4.10;;
26540;SDS011;14206;50.202;10.948;2023-10-09T08:29:13;4.57;;;3.60;;
26540;SDS011;14206;50.202;10.948;2023-10-09T08:31:43;5.03;;;3.90;;
26540;SDS011;14206;50.202;10.948;2023-10-09T08:34:13;5.60;;;4.22;;
26540;SDS011;14206;50.202;10.948;2023-10-09T08:37:10;5.75;;;4.50;;
26540;SDS011;14206;50.202;10.948;2023-10-09T08:39:39;5.25;;;4.50;;
26540;SDS011;14206;50.202;10.948;2023-10-09T08:42:08;5.32;;;4.00;;
26540;SDS011;14206;50.202;10.948;2023-10-09T08:44:37;4.53;;;3.80;;
26540;SDS011;14206;50.202;10.948;2023-10-09T08:47:10;4.72;;;4.13;;
26540;SDS011;14206;50.202;10.948;2023-10-09T08:49:38;4.63;;;3.75;;
26540;SDS011;14206;50.202;10.948;2023-10-09T08:52:05;4.53;;;4.05;;
26540;SDS011;14206;50.202;10.948;2023-10-09T08:54:32;5.50;;;3.70;;
26540;SDS011;14206;50.202;10.948;2023-10-09T08:57:00;4.65;;;3.80;;
26540;SDS011;14206;50.202;10.948;2023-10-09T08:59:27;3.80;;;3.40;;
26540;SDS011;14206;50.202;10.948;2023-10-09T09:01:54;4.65;;;3.47;;
26540;SDS011;14206;50.202;10.948;2023-10-09T09:04:36;5.38;;;4.10;;
26540;SDS011;14206;50.202;10.948;2023-10-09T09:09:56;4.30;;;3.58;;
26540;SDS011;14206;50.202;10.948;2023-10-09T09:12:23;3.72;;;3.17;;
26540;SDS011;14206;50.202;10.948;2023-10-09T09:14:50;4.03;;;3.45;;
26540;SDS011;14206;50.202;10.948;2023-10-09T09:17:29;4.63;;;3.40;;
26540;SDS011;14206;50.202;10.948;2023-10-09T09:19:59;5.43;;;3.75;;
26540;SDS011;14206;50.202;10.948;2023-10-09T09:22:52;7.38;;;4.50;;
26540;SDS011;14206;50.202;10.948;2023-10-09T09:25:23;7.28;;;4.35;;
26540;SDS011;14206;50.202;10.948;2023-10-09T09:27:51;6.95;;;3.95;;
26540;SDS011;14206;50.202;10.948;2023-10-09T09:30:22;5.07;;;4.22;;
26540;SDS011;14206;50.202;10.948;2023-10-09T09:32:51;5.88;;;4.22;;
26540;SDS011;14206;50.202;10.948;2023-10-09T09:35:38;4.97;;;4.20;;
26540;SDS011;14206;50.202;10.948;2023-10-09T09:38:05;5.55;;;4.80;;
26540;SDS011;14206;50.202;10.948;2023-10-09T09:40:34;6.63;;;4.93;;
26540;SDS011;14206;50.202;10.948;2023-10-09T09:43:07;7.00;;;5.50;;
26540;SDS011;14206;50.202;10.948;2023-10-09T09:45:48;7.30;;;4.90;;
26540;SDS011;14206;50.202;10.948;2023-10-09T09:48:18;7.18;;;5.07;;
26540;SDS011;14206;50.202;10.948;2023-10-09T09:50:45;6.28;;;4.50;;
26540;SDS011;14206;50.202;10.948;2023-10-09T09:53:13;5.57;;;3.95;;
26540;SDS011;14206;50.202;10.948;2023-10-09T09:55:50;5.55;;;4.07;;
26540;SDS011;14206;50.202;10.948;2023-10-09T09:58:24;5.93;;;3.53;;
26540;SDS011;14206;50.202;10.948;2023-10-09T10:01:03;4.80;;;3.70;;
26540;SDS011;14206;50.202;10.948;2023-10-09T10:03:42;5.75;;;3.85;;
26540;SDS011;14206;50.202;10.948;2023-10-09T10:06:17;5.38;;;3.85;;
26540;SDS011;14206;50.202;10.948;2023-10-09T10:08:47;6.13;;;4.03;;
26540;SDS011;14206;50.202;10.948;2023-10-09T10:14:18;6.03;;;3.85;;
26540;SDS011;14206;50.202;10.948;2023-10-09T10:19:58;6.72;;;4.30;;
26540;SDS011;14206;50.202;10.948;2023-10-09T10:23:16;5.70;;;3.83;;
26540;SDS011;14206;50.202;10.948;2023-10-09T10:25:52;4.85;;;3.45;;
26540;SDS011;14206;50.202;10.948;2023-10-09T10:28:27;4.47;;;3.13;;
26540;SDS011;14206;50.202;10.948;2023-10-09T10:31:10;4.75;;;3.40;;
26540;SDS011;14206;50.202;10.948;2023-10-09T10:36:22;4.88;;;3.08;;
26540;SDS011;14206;50.202;10.948;2023-10-09T10:41:32;4.88;;;3.45;;
26540;SDS011;14206;50.202;10.948;2023-10-09T10:44:24;4.75;;;3.63;;
26540;SDS011;14206;50.202;10.948;2023-10-09T10:47:06;6.45;;;3.28;;
26540;SDS011;14206;50.202;10.948;2023-10-09T10:49:59;5.05;;;4.22;;
26540;SDS011;14206;50.202;10.948;2023-10-09T10:55:54;7.82;;;3.75;;
26540;SDS011;14206;50.202;10.948;2023-10-09T10:58:40;6.32;;;4.18;;
26540;SDS011;14206;50.202;10.948;2023-10-09T11:01:32;5.15;;;3.92;;
26540;SDS011;14206;50.202;10.948;2023-10-09T11:04:19;9.50;;;4.03;;
26540;SDS011;14206;50.202;10.948;2023-10-09T11:06:59;7.60;;;4.55;;
26540;SDS011;14206;50.202;10.948;2023-10-09T11:09:43;8.63;;;4.10;;
26540;SDS011;14206;50.202;10.948;2023-10-09T11:12:26;7.22;;;4.72;;
26540;SDS011;14206;50.202;10.948;2023-10-09T11:15:47;7.80;;;4.38;;
26540;SDS011;14206;50.202;10.948;2023-10-09T11:20:55;6.82;;;4.18;;
26540;SDS011;14206;50.202;10.948;2023-10-09T11:23:43;6.45;;;3.83;;
26540;SDS011;14206;50.202;10.948;2023-10-09T11:26:24;5.97;;;3.78;;
26540;SDS011;14206;50.202;10.948;2023-10-09T11:31:56;5.22;;;3.80;;
26540;SDS011;14206;50.202;10.948;2023-10-09T11:34:32;4.60;;;3.60;;
26540;SDS011;14206;50.202;10.948;2023-10-09T11:39:38;4.78;;;3.70;;
26540;SDS011;14206;50.202;10.948;2023-10-09T11:42:22;6.95;;;3.95;;
26540;SDS011;14206;50.202;10.948;2023-10-09T11:45:25;4.15;;;3.22;;
26540;SDS011;14206;50.202;10.948;2023-10-09T11:47:57;5.15;;;3.10;;
26540;SDS011;14206;50.202;10.948;2023-10-09T11:50:47;4.35;;;3.20;;
26540;SDS011;14206;50.202;10.948;2023-10-09T11:53:44;5.75;;;3.05;;
26540;SDS011;14206;50.202;10.948;2023-10-09T11:56:31;3.67;;;2.70;;
26540;SDS011;14206;50.202;10.948;2023-10-09T11:58:58;3.05;;;2.30;;
26540;SDS011;14206;50.202;10.948;2023-10-09T12:01:31;4.93;;;2.85;;
26540;SDS011;14206;50.202;10.948;2023-10-09T12:04:02;4.85;;;3.65;;
26540;SDS011;14206;50.202;10.948;2023-10-09T12:06:29;6.85;;;4.15;;
26540;SDS011;14206;50.202;10.948;2023-10-09T12:08:59;5.00;;;3.60;;
26540;SDS011;14206;50.202;10.948;2023-10-09T12:11:25;4.75;;;3.03;;
26540;SDS011;14206;50.202;10.948;2023-10-09T12:13:56;4.13;;;2.72;;
26540;SDS011;14206;50.202;10.948;2023-10-09T12:16:24;4.07;;;2.80;;
26540;SDS011;14206;50.202;10.948;2023-10-09T12:18:55;4.28;;;2.58;;
26540;SDS011;14206;50.202;10.948;2023-10-09T12:21:22;6.53;;;3.55;;
26540;SDS011;14206;50.202;10.948;2023-10-09T12:23:50;4.78;;;3.20;;
26540;SDS011;14206;50.202;10.948;2023-10-09T12:26:17;7.07;;;3.53;;
26540;SDS011;14206;50.202;10.948;2023-10-09T12:28:44;7.03;;;3.25;;
26540;SDS011;14206;50.202;10.948;2023-10-09T12:31:13;5.35;;;3.78;;
26540;SDS011;14206;50.202;10.948;2023-10-09T12:33:47;3.88;;;3.10;;
26540;SDS011;14206;50.202;10.948;2023-10-09T12:36:16;6.05;;;3.13;;
26540;SDS011;14206;50.202;10.948;2023-10-09T12:38:49;6.93;;;2.97;;
26540;SDS011;14206;50.202;10.948;2023-10-09T12:41:20;6.03;;;3.10;;
26540;SDS011;14206;50.202;10.948;2023-10-09T12:43:55;5.25;;;3.42;;
26540;SDS011;14206;50.202;10.948;2023-10-09T12:46:27;4.90;;;3.28;;
26540;SDS011;14206;50.202;10.948;2023-10-09T12:48:59;5.32;;;2.65;;
26540;SDS011;14206;50.202;10.948;2023-10-09T12:51:27;5.80;;;3.25;;
26540;SDS011;14206;50.202;10.948;2023-10-09T12:53:57;5.53;;;2.63;;
26540;SDS011;14206;50.202;10.948;2023-10-09T12:56:25;5.15;;;2.72;;
26540;SDS011;14206;50.202;10.948;2023-10-09T12:59:05;4.65;;;2.70;;
26540;SDS011;14206;50.202;10.948;2023-10-09T13:01:33;6.18;;;2.90;;
26540;SDS011;14206;50.202;10.948;2023-10-09T13:04:10;5.07;;;2.63;;
26540;SDS011;14206;50.202;10.948;2023-10-09T13:09:11;3.58;;;2.30;;
26540;SDS011;14206;50.202;10.948;2023-10-09T13:11:51;4.60;;;2.38;;
26540;SDS011;14206;50.202;10.948;2023-10-09T13:14:18;3.42;;;2.17;;
26540;SDS011;14206;50.202;10.948;2023-10-09T13:16:48;3.38;;;2.30;;
26540;SDS011;14206;50.202;10.948;2023-10-09T13:19:19;4.20;;;2.35;;
26540;SDS011;14206;50.202;10.948;2023-10-09T13:21:51;4.28;;;2.25;;
26540;SDS011;14206;50.202;10.948;2023-10-09T13:24:17;4.43;;;2.42;;
26540;SDS011;14206;50.202;10.948;2023-10-09T13:26:51;3.83;;;2.60;;
26540;SDS011;14206;50.202;10.948;2023-10-09T13:29:24;3.53;;;2.20;;
26540;SDS011;14206;50.202;10.948;2023-10-09T13:31:51;4.60;;;2.45;;
26540;SDS011;14206;50.202;10.948;2023-10-09T13:34:24;3.75;;;2.28;;
26540;SDS011;14206;50.202;10.948;2023-10-09T13:36:54;4.68;;;2.63;;
26540;SDS011;14206;50.202;10.948;2023-10-09T13:39:31;6.57;;;2.75;;
26540;SDS011;14206;50.202;10.948;2023-10-09T13:42:04;7.13;;;3.15;;
26540;SDS011;14206;50.202;10.948;2023-10-09T13:44:33;4.63;;;3.00;;
26540;SDS011;14206;50.202;10.948;2023-10-09T13:49:46;3.97;;;2.40;;
26540;SDS011;14206;50.202;10.948;2023-10-09T13:52:17;6.50;;;3.55;;
26540;SDS011;14206;50.202;10.948;2023-10-09T13:54:45;3.92;;;2.50;;
26540;SDS011;14206;50.202;10.948;2023-10-09T13:57:16;3.85;;;2.47;;
26540;SDS011;14206;50.202;10.948;2023-10-09T13:59:43;5.05;;;2.65;;
26540;SDS011;14206;50.202;10.948;2023-10-09T14:02:16;3.78;;;2.45;;
26540;SDS011;14206;50.202;10.948;2023-10-09T14:04:48;5.38;;;3.17;;
26540;SDS011;14206;50.202;10.948;2023-10-09T14:07:15;6.45;;;3.25;;
26540;SDS011;14206;50.202;10.948;2023-10-09T14:09:47;5.18;;;3.25;;
26540;SDS011;14206;50.202;10.948;2023-10-09T14:12:33;4.75;;;2.80;;
26540;SDS011;14206;50.202;10.948;2023-10-09T14:15:00;4.45;;;2.80;;
26540;SDS011;14206;50.202;10.948;2023-10-09T14:17:30;8.35;;;4.15;;
26540;SDS011;14206;50.202;10.948;2023-10-09T14:19:57;9.85;;;3.90;;
26540;SDS011;14206;50.202;10.948;2023-10-09T14:22:47;8.57;;;4.20;;
26540;SDS011;14206;50.202;10.948;2023-10-09T14:25:19;8.63;;;3.58;;
26540;SDS011;14206;50.202;10.948;2023-10-09T14:27:48;5.57;;;3.38;;
26540;SDS011;14206;50.202;10.948;2023-10-09T14:30:15;4.95;;;3.28;;
26540;SDS011;14206;50.202;10.948;2023-10-09T14:32:49;7.10;;;3.30;;
26540;SDS011;14206;50.202;10.948;2023-10-09T14:35:22;7.25;;;3.63;;
26540;SDS011;14206;50.202;10.948;2023-10-09T14:37:53;8.13;;;3.67;;
26540;SDS011;14206;50.202;10.948;2023-10-09T14:40:20;7.40;;;3.55;;
26540;SDS011;14206;50.202;10.948;2023-10-09T14:42:50;6.90;;;3.45;;
26540;SDS011;14206;50.202;10.948;2023-10-09T14:45:23;6.40;;;3.72;;
26540;SDS011;14206;50.202;10.948;2023-10-09T14:47:53;7.85;;;3.42;;
26540;SDS011;14206;50.202;10.948;2023-10-09T14:50:21;6.00;;;3.63;;
26540;SDS011;14206;50.202;10.948;2023-10-09T14:52:49;7.75;;;3.88;;
26540;SDS011;14206;50.202;10.948;2023-10-09T14:55:19;6.13;;;3.50;;
26540;SDS011;14206;50.202;10.948;2023-10-09T14:57:55;7.20;;;3.58;;
26540;SDS011;14206;50.202;10.948;2023-10-09T15:00:21;6.60;;;3.50;;
26540;SDS011;14206;50.202;10.948;2023-10-09T15:02:52;5.45;;;3.60;;
26540;SDS011;14206;50.202;10.948;2023-10-09T15:05:19;6.72;;;3.10;;
26540;SDS011;14206;50.202;10.948;2023-10-09T15:07:49;8.32;;;3.63;;
26540;SDS011;14206;50.202;10.948;2023-10-09T15:10:16;9.15;;;3.72;;
26540;SDS011;14206;50.202;10.948;2023-10-09T15:12:44;6.72;;;3.33;;
26540;SDS011;14206;50.202;10.948;2023-10-09T15:15:15;5.57;;;3.38;;
26540;SDS011;14206;50.202;10.948;2023-10-09T15:17:43;4.40;;;2.83;;
26540;SDS011;14206;50.202;10.948;2023-10-09T15:20:12;7.32;;;3.15;;
26540;SDS011;14206;50.202;10.948;2023-10-09T15:22:43;5.85;;;3.67;;
26540;SDS011;14206;50.202;10.948;2023-10-09T15:25:11;5.25;;;3.45;;
26540;SDS011;14206;50.202;10.948;2023-10-09T15:27:42;6.72;;;3.50;;
26540;SDS011;14206;50.202;10.948;2023-10-09T15:30:10;6.05;;;3.03;;
26540;SDS011;14206;50.202;10.948;2023-10-09T15:32:40;6.45;;;3.40;;
26540;SDS011;14206;50.202;10.948;2023-10-09T15:35:10;4.85;;;2.97;;
26540;SDS011;14206;50.202;10.948;2023-10-09T15:37:40;4.60;;;3.30;;
26540;SDS011;14206;50.202;10.948;2023-10-09T15:40:08;4.57;;;2.78;;
26540;SDS011;14206;50.202;10.948;2023-10-09T15:42:45;4.55;;;2.50;;
26540;SDS011;14206;50.202;10.948;2023-10-09T15:45:22;7.72;;;3.60;;
26540;SDS011;14206;50.202;10.948;2023-10-09T15:47:50;3.58;;;2.70;;
26540;SDS011;14206;50.202;10.948;2023-10-09T15:50:18;4.05;;;2.17;;
26540;SDS011;14206;50.202;10.948;2023-10-09T15:52:49;6.28;;;2.70;;
26540;SDS011;14206;50.202;10.948;2023-10-09T15:55:20;6.35;;;3.03;;
26540;SDS011;14206;50.202;10.948;2023-10-09T15:57:50;5.35;;;3.42;;
26540;SDS011;14206;50.202;10.948;2023-10-09T16:00:21;5.03;;;3.03;;
26540;SDS011;14206;50.202;10.948;2023-10-09T16:02:56;3.38;;;2.67;;
26540;SDS011;14206;50.202;10.948;2023-10-09T16:05:27;6.55;;;3.40;;